Riverside, Oregon
Current Conditions -  °F | °C
As of 5:53 PM on Thursday 20 Nov 2014 (Local Time) from KBNO Reporting Station
Overcast Overcast  
Wind Chill: 30°   Ceiling: 9000
Heat Index: 34°   Visibility: 10mi
Dew Point: 30°   Wind: 5mph
Humidity: 85%   Direction: 10°N
Pressure: 29.99"   Gusts: NA
Location:  43.54°N, 118.16°W
Report Text: KBNO 210153Z AUTO 01004KT 10SM OVC090 01/M01 A2999 RMK AO2 SLP178 T00111011
Loading
Personal Weather Stations






























Interactive Weather Map New forecast layout! Learn more

10-Day Weather Forecast

Advertisements
Track Severe Weather on mobile